sensor_id;sensor_type;location;lat;lon;timestamp;P1;durP1;ratioP1;P2;durP2;ratioP2
15012;SDS011;7603;49.432;11.418;2022-10-17T00:01:03;22.20;;;12.70;;
15012;SDS011;7603;49.432;11.418;2022-10-17T00:03:30;27.73;;;12.70;;
15012;SDS011;7603;49.432;11.418;2022-10-17T00:05:56;18.42;;;11.13;;
15012;SDS011;7603;49.432;11.418;2022-10-17T00:08:22;26.13;;;11.55;;
15012;SDS011;7603;49.432;11.418;2022-10-17T00:10:55;23.55;;;14.38;;
15012;SDS011;7603;49.432;11.418;2022-10-17T00:13:31;22.70;;;12.25;;
15012;SDS011;7603;49.432;11.418;2022-10-17T00:15:58;24.98;;;13.38;;
15012;SDS011;7603;49.432;11.418;2022-10-17T00:18:24;17.13;;;12.48;;
15012;SDS011;7603;49.432;11.418;2022-10-17T00:20:50;20.52;;;11.23;;
15012;SDS011;7603;49.432;11.418;2022-10-17T00:23:16;59.85;;;29.10;;
15012;SDS011;7603;49.432;11.418;2022-10-17T00:25:42;23.38;;;16.15;;
15012;SDS011;7603;49.432;11.418;2022-10-17T00:28:08;15.52;;;13.60;;
15012;SDS011;7603;49.432;11.418;2022-10-17T00:30:38;18.13;;;12.95;;
15012;SDS011;7603;49.432;11.418;2022-10-17T00:33:04;22.40;;;12.30;;
15012;SDS011;7603;49.432;11.418;2022-10-17T00:35:30;23.15;;;10.57;;
15012;SDS011;7603;49.432;11.418;2022-10-17T00:37:56;15.38;;;11.63;;
15012;SDS011;7603;49.432;11.418;2022-10-17T00:40:21;23.67;;;14.95;;
15012;SDS011;7603;49.432;11.418;2022-10-17T00:42:48;21.80;;;11.65;;
15012;SDS011;7603;49.432;11.418;2022-10-17T00:48:02;17.38;;;11.15;;
15012;SDS011;7603;49.432;11.418;2022-10-17T00:50:32;15.82;;;10.73;;
15012;SDS011;7603;49.432;11.418;2022-10-17T00:53:00;20.45;;;11.23;;
15012;SDS011;7603;49.432;11.418;2022-10-17T00:55:30;16.80;;;10.80;;
15012;SDS011;7603;49.432;11.418;2022-10-17T00:57:59;13.85;;;10.40;;
15012;SDS011;7603;49.432;11.418;2022-10-17T01:00:27;21.50;;;13.35;;
15012;SDS011;7603;49.432;11.418;2022-10-17T01:02:53;85.40;;;61.33;;
15012;SDS011;7603;49.432;11.418;2022-10-17T01:05:19;20.58;;;12.82;;
15012;SDS011;7603;49.432;11.418;2022-10-17T01:07:45;16.48;;;10.73;;
15012;SDS011;7603;49.432;11.418;2022-10-17T01:10:13;10.95;;;8.85;;
15012;SDS011;7603;49.432;11.418;2022-10-17T01:15:35;20.92;;;13.95;;
15012;SDS011;7603;49.432;11.418;2022-10-17T01:18:07;11.23;;;10.05;;
15012;SDS011;7603;49.432;11.418;2022-10-17T01:20:59;11.02;;;9.75;;
15012;SDS011;7603;49.432;11.418;2022-10-17T01:26:40;12.65;;;8.98;;
15012;SDS011;7603;49.432;11.418;2022-10-17T01:29:34;11.27;;;7.78;;
15012;SDS011;7603;49.432;11.418;2022-10-17T01:41:06;13.43;;;8.18;;
15012;SDS011;7603;49.432;11.418;2022-10-17T01:43:36;17.95;;;9.55;;
15012;SDS011;7603;49.432;11.418;2022-10-17T01:45:58;15.75;;;9.75;;
15012;SDS011;7603;49.432;11.418;2022-10-17T01:48:34;15.18;;;9.77;;
15012;SDS011;7603;49.432;11.418;2022-10-17T01:51:04;15.20;;;9.60;;
15012;SDS011;7603;49.432;11.418;2022-10-17T01:53:38;10.18;;;9.07;;
15012;SDS011;7603;49.432;11.418;2022-10-17T01:56:08;11.70;;;9.00;;
15012;SDS011;7603;49.432;11.418;2022-10-17T01:58:41;12.68;;;9.05;;
15012;SDS011;7603;49.432;11.418;2022-10-17T02:01:10;11.52;;;7.82;;
15012;SDS011;7603;49.432;11.418;2022-10-17T02:03:37;11.02;;;7.95;;
15012;SDS011;7603;49.432;11.418;2022-10-17T02:06:06;8.85;;;7.93;;
15012;SDS011;7603;49.432;11.418;2022-10-17T02:08:45;8.63;;;7.85;;
15012;SDS011;7603;49.432;11.418;2022-10-17T02:14:43;15.48;;;9.38;;
15012;SDS011;7603;49.432;11.418;2022-10-17T02:20:48;10.38;;;8.30;;
15012;SDS011;7603;49.432;11.418;2022-10-17T02:23:26;12.57;;;9.07;;
15012;SDS011;7603;49.432;11.418;2022-10-17T02:31:24;12.18;;;8.23;;
15012;SDS011;7603;49.432;11.418;2022-10-17T02:33:57;14.35;;;9.68;;
15012;SDS011;7603;49.432;11.418;2022-10-17T02:36:28;8.27;;;7.57;;
15012;SDS011;7603;49.432;11.418;2022-10-17T02:38:57;9.35;;;8.00;;
15012;SDS011;7603;49.432;11.418;2022-10-17T02:41:25;11.85;;;8.65;;
15012;SDS011;7603;49.432;11.418;2022-10-17T02:43:51;11.20;;;9.27;;
15012;SDS011;7603;49.432;11.418;2022-10-17T02:46:18;9.73;;;8.82;;
15012;SDS011;7603;49.432;11.418;2022-10-17T02:49:21;12.88;;;7.90;;
15012;SDS011;7603;49.432;11.418;2022-10-17T02:51:54;17.77;;;8.38;;
15012;SDS011;7603;49.432;11.418;2022-10-17T02:54:32;11.63;;;8.27;;
15012;SDS011;7603;49.432;11.418;2022-10-17T02:59:43;17.70;;;9.30;;
15012;SDS011;7603;49.432;11.418;2022-10-17T03:02:09;17.60;;;10.85;;
15012;SDS011;7603;49.432;11.418;2022-10-17T03:04:35;13.23;;;8.73;;
15012;SDS011;7603;49.432;11.418;2022-10-17T03:07:02;14.93;;;10.05;;
15012;SDS011;7603;49.432;11.418;2022-10-17T03:09:28;10.95;;;8.23;;
15012;SDS011;7603;49.432;11.418;2022-10-17T03:11:53;13.20;;;9.50;;
15012;SDS011;7603;49.432;11.418;2022-10-17T03:14:19;12.35;;;7.68;;
15012;SDS011;7603;49.432;11.418;2022-10-17T03:16:45;8.65;;;7.50;;
15012;SDS011;7603;49.432;11.418;2022-10-17T03:19:10;16.48;;;10.98;;
15012;SDS011;7603;49.432;11.418;2022-10-17T03:21:36;12.65;;;8.38;;
15012;SDS011;7603;49.432;11.418;2022-10-17T03:24:02;23.30;;;12.77;;
15012;SDS011;7603;49.432;11.418;2022-10-17T03:26:29;19.80;;;14.68;;
15012;SDS011;7603;49.432;11.418;2022-10-17T03:28:55;19.50;;;13.93;;
15012;SDS011;7603;49.432;11.418;2022-10-17T03:31:21;20.38;;;15.00;;
15012;SDS011;7603;49.432;11.418;2022-10-17T03:33:47;14.02;;;11.93;;
15012;SDS011;7603;49.432;11.418;2022-10-17T03:36:13;18.27;;;12.98;;
15012;SDS011;7603;49.432;11.418;2022-10-17T03:38:41;14.43;;;12.73;;
15012;SDS011;7603;49.432;11.418;2022-10-17T03:41:07;16.58;;;10.20;;
15012;SDS011;7603;49.432;11.418;2022-10-17T03:43:33;13.50;;;11.70;;
15012;SDS011;7603;49.432;11.418;2022-10-17T03:45:59;13.85;;;10.85;;
15012;SDS011;7603;49.432;11.418;2022-10-17T03:48:26;11.15;;;9.93;;
15012;SDS011;7603;49.432;11.418;2022-10-17T03:51:00;9.93;;;9.10;;
15012;SDS011;7603;49.432;11.418;2022-10-17T03:53:30;15.73;;;9.95;;
15012;SDS011;7603;49.432;11.418;2022-10-17T03:56:07;13.80;;;8.52;;
15012;SDS011;7603;49.432;11.418;2022-10-17T03:58:34;9.38;;;7.88;;
15012;SDS011;7603;49.432;11.418;2022-10-17T04:01:06;11.07;;;8.80;;
15012;SDS011;7603;49.432;11.418;2022-10-17T04:03:33;10.13;;;8.98;;
15012;SDS011;7603;49.432;11.418;2022-10-17T04:06:00;8.65;;;7.63;;
15012;SDS011;7603;49.432;11.418;2022-10-17T04:08:27;10.77;;;9.68;;
15012;SDS011;7603;49.432;11.418;2022-10-17T04:11:00;11.65;;;10.50;;
15012;SDS011;7603;49.432;11.418;2022-10-17T04:13:27;17.20;;;15.20;;
15012;SDS011;7603;49.432;11.418;2022-10-17T04:15:57;11.63;;;10.30;;
15012;SDS011;7603;49.432;11.418;2022-10-17T04:18:24;13.45;;;11.40;;
15012;SDS011;7603;49.432;11.418;2022-10-17T04:20:50;10.05;;;9.10;;
15012;SDS011;7603;49.432;11.418;2022-10-17T04:23:16;13.05;;;11.85;;
15012;SDS011;7603;49.432;11.418;2022-10-17T04:25:42;13.65;;;10.85;;
15012;SDS011;7603;49.432;11.418;2022-10-17T04:28:08;14.23;;;11.25;;
15012;SDS011;7603;49.432;11.418;2022-10-17T04:30:34;15.98;;;10.30;;
15012;SDS011;7603;49.432;11.418;2022-10-17T04:33:00;15.70;;;10.23;;
15012;SDS011;7603;49.432;11.418;2022-10-17T04:35:26;13.38;;;9.30;;
15012;SDS011;7603;49.432;11.418;2022-10-17T04:37:52;11.55;;;8.82;;
15012;SDS011;7603;49.432;11.418;2022-10-17T04:40:18;11.05;;;9.90;;
15012;SDS011;7603;49.432;11.418;2022-10-17T04:42:44;21.25;;;12.02;;
15012;SDS011;7603;49.432;11.418;2022-10-17T04:45:11;11.07;;;9.45;;
15012;SDS011;7603;49.432;11.418;2022-10-17T04:47:38;13.20;;;10.18;;
15012;SDS011;7603;49.432;11.418;2022-10-17T04:50:04;15.23;;;11.05;;
15012;SDS011;7603;49.432;11.418;2022-10-17T04:52:30;18.17;;;12.82;;
15012;SDS011;7603;49.432;11.418;2022-10-17T04:54:58;15.18;;;10.52;;
15012;SDS011;7603;49.432;11.418;2022-10-17T04:57:24;17.05;;;12.45;;
15012;SDS011;7603;49.432;11.418;2022-10-17T04:59:50;16.48;;;14.27;;
15012;SDS011;7603;49.432;11.418;2022-10-17T05:02:16;15.73;;;11.00;;
15012;SDS011;7603;49.432;11.418;2022-10-17T05:04:41;13.82;;;11.70;;
15012;SDS011;7603;49.432;11.418;2022-10-17T05:07:07;12.40;;;9.50;;
15012;SDS011;7603;49.432;11.418;2022-10-17T05:09:33;10.27;;;9.25;;
15012;SDS011;7603;49.432;11.418;2022-10-17T05:11:58;12.82;;;11.48;;
15012;SDS011;7603;49.432;11.418;2022-10-17T05:14:24;10.35;;;9.35;;
15012;SDS011;7603;49.432;11.418;2022-10-17T05:16:50;10.25;;;8.98;;
15012;SDS011;7603;49.432;11.418;2022-10-17T05:19:15;12.43;;;11.13;;
15012;SDS011;7603;49.432;11.418;2022-10-17T05:21:42;16.35;;;10.88;;
15012;SDS011;7603;49.432;11.418;2022-10-17T05:24:08;18.20;;;11.45;;
15012;SDS011;7603;49.432;11.418;2022-10-17T05:26:35;22.35;;;14.93;;
15012;SDS011;7603;49.432;11.418;2022-10-17T05:29:01;11.40;;;10.30;;
15012;SDS011;7603;49.432;11.418;2022-10-17T05:31:27;13.27;;;11.60;;
15012;SDS011;7603;49.432;11.418;2022-10-17T05:33:54;14.18;;;12.90;;
15012;SDS011;7603;49.432;11.418;2022-10-17T05:36:24;20.98;;;16.50;;
15012;SDS011;7603;49.432;11.418;2022-10-17T05:38:50;14.00;;;12.52;;
15012;SDS011;7603;49.432;11.418;2022-10-17T05:41:16;18.05;;;11.85;;
15012;SDS011;7603;49.432;11.418;2022-10-17T05:43:42;12.93;;;10.10;;
15012;SDS011;7603;49.432;11.418;2022-10-17T05:46:08;13.48;;;12.32;;
15012;SDS011;7603;49.432;11.418;2022-10-17T05:48:34;18.45;;;12.07;;
15012;SDS011;7603;49.432;11.418;2022-10-17T05:51:02;15.05;;;12.13;;
15012;SDS011;7603;49.432;11.418;2022-10-17T05:53:30;14.98;;;13.52;;
15012;SDS011;7603;49.432;11.418;2022-10-17T05:55:57;14.52;;;13.35;;
15012;SDS011;7603;49.432;11.418;2022-10-17T05:58:24;14.00;;;12.55;;
15012;SDS011;7603;49.432;11.418;2022-10-17T06:00:50;11.90;;;9.82;;
15012;SDS011;7603;49.432;11.418;2022-10-17T06:03:16;9.68;;;8.88;;
15012;SDS011;7603;49.432;11.418;2022-10-17T06:05:42;17.55;;;12.93;;
15012;SDS011;7603;49.432;11.418;2022-10-17T06:08:07;19.15;;;10.85;;
15012;SDS011;7603;49.432;11.418;2022-10-17T06:10:33;15.60;;;10.15;;
15012;SDS011;7603;49.432;11.418;2022-10-17T06:12:59;17.27;;;9.80;;
15012;SDS011;7603;49.432;11.418;2022-10-17T06:15:24;13.32;;;12.00;;
15012;SDS011;7603;49.432;11.418;2022-10-17T06:17:50;18.83;;;13.73;;
15012;SDS011;7603;49.432;11.418;2022-10-17T06:20:15;10.77;;;9.77;;
15012;SDS011;7603;49.432;11.418;2022-10-17T06:22:41;14.45;;;12.07;;
15012;SDS011;7603;49.432;11.418;2022-10-17T06:25:07;17.15;;;10.13;;
15012;SDS011;7603;49.432;11.418;2022-10-17T06:27:33;14.23;;;11.02;;
15012;SDS011;7603;49.432;11.418;2022-10-17T06:29:58;64.45;;;37.72;;
15012;SDS011;7603;49.432;11.418;2022-10-17T06:32:24;14.88;;;13.27;;
15012;SDS011;7603;49.432;11.418;2022-10-17T06:34:50;27.75;;;12.90;;
15012;SDS011;7603;49.432;11.418;2022-10-17T06:37:15;16.63;;;11.75;;
15012;SDS011;7603;49.432;11.418;2022-10-17T06:39:41;20.80;;;10.82;;
15012;SDS011;7603;49.432;11.418;2022-10-17T06:42:06;16.75;;;11.50;;
15012;SDS011;7603;49.432;11.418;2022-10-17T06:44:32;16.40;;;12.07;;
15012;SDS011;7603;49.432;11.418;2022-10-17T06:46:58;13.82;;;11.63;;
15012;SDS011;7603;49.432;11.418;2022-10-17T06:49:25;17.48;;;13.45;;
15012;SDS011;7603;49.432;11.418;2022-10-17T06:51:52;54.38;;;23.25;;
15012;SDS011;7603;49.432;11.418;2022-10-17T06:54:18;68.85;;;35.42;;
15012;SDS011;7603;49.432;11.418;2022-10-17T06:56:44;68.85;;;34.47;;
15012;SDS011;7603;49.432;11.418;2022-10-17T06:59:10;32.35;;;18.95;;
15012;SDS011;7603;49.432;11.418;2022-10-17T07:01:35;57.65;;;28.23;;
15012;SDS011;7603;49.432;11.418;2022-10-17T07:04:01;31.40;;;20.20;;
15012;SDS011;7603;49.432;11.418;2022-10-17T07:06:27;18.83;;;12.82;;
15012;SDS011;7603;49.432;11.418;2022-10-17T07:08:52;11.57;;;10.48;;
15012;SDS011;7603;49.432;11.418;2022-10-17T07:11:19;14.77;;;8.93;;
15012;SDS011;7603;49.432;11.418;2022-10-17T07:13:46;10.27;;;9.05;;
15012;SDS011;7603;49.432;11.418;2022-10-17T07:16:12;12.18;;;10.98;;
15012;SDS011;7603;49.432;11.418;2022-10-17T07:18:39;14.15;;;10.52;;
15012;SDS011;7603;49.432;11.418;2022-10-17T07:21:05;14.60;;;10.82;;
15012;SDS011;7603;49.432;11.418;2022-10-17T07:23:32;14.40;;;11.18;;
15012;SDS011;7603;49.432;11.418;2022-10-17T07:26:02;12.10;;;10.27;;
15012;SDS011;7603;49.432;11.418;2022-10-17T07:28:33;14.43;;;11.63;;
15012;SDS011;7603;49.432;11.418;2022-10-17T07:31:04;12.18;;;11.05;;
15012;SDS011;7603;49.432;11.418;2022-10-17T07:33:30;15.25;;;11.73;;
15012;SDS011;7603;49.432;11.418;2022-10-17T07:35:59;11.88;;;9.20;;
15012;SDS011;7603;49.432;11.418;2022-10-17T07:38:26;15.63;;;13.90;;
15012;SDS011;7603;49.432;11.418;2022-10-17T07:40:56;17.40;;;9.05;;
15012;SDS011;7603;49.432;11.418;2022-10-17T07:43:23;13.25;;;9.65;;
15012;SDS011;7603;49.432;11.418;2022-10-17T07:45:49;12.60;;;8.75;;
15012;SDS011;7603;49.432;11.418;2022-10-17T07:48:15;11.00;;;10.02;;
15012;SDS011;7603;49.432;11.418;2022-10-17T07:50:41;10.95;;;9.90;;
15012;SDS011;7603;49.432;11.418;2022-10-17T07:53:07;8.02;;;7.22;;
15012;SDS011;7603;49.432;11.418;2022-10-17T07:55:33;11.60;;;7.70;;
15012;SDS011;7603;49.432;11.418;2022-10-17T07:58:00;8.00;;;5.80;;
15012;SDS011;7603;49.432;11.418;2022-10-17T08:00:26;5.68;;;5.20;;
15012;SDS011;7603;49.432;11.418;2022-10-17T08:02:51;8.32;;;5.65;;
15012;SDS011;7603;49.432;11.418;2022-10-17T08:05:17;8.98;;;5.63;;
15012;SDS011;7603;49.432;11.418;2022-10-17T08:07:42;8.15;;;5.00;;
15012;SDS011;7603;49.432;11.418;2022-10-17T08:10:09;5.30;;;4.60;;
15012;SDS011;7603;49.432;11.418;2022-10-17T08:12:36;4.57;;;4.28;;
15012;SDS011;7603;49.432;11.418;2022-10-17T08:15:03;5.32;;;4.18;;
15012;SDS011;7603;49.432;11.418;2022-10-17T08:17:29;4.28;;;3.78;;
15012;SDS011;7603;49.432;11.418;2022-10-17T08:19:55;4.10;;;3.80;;
15012;SDS011;7603;49.432;11.418;2022-10-17T08:22:20;5.10;;;3.03;;
15012;SDS011;7603;49.432;11.418;2022-10-17T08:24:46;3.92;;;3.35;;
15012;SDS011;7603;49.432;11.418;2022-10-17T08:27:12;4.07;;;3.63;;
15012;SDS011;7603;49.432;11.418;2022-10-17T08:29:38;4.05;;;3.25;;
15012;SDS011;7603;49.432;11.418;2022-10-17T08:32:05;4.72;;;4.35;;
15012;SDS011;7603;49.432;11.418;2022-10-17T08:34:31;4.20;;;3.90;;
15012;SDS011;7603;49.432;11.418;2022-10-17T08:36:57;10.30;;;9.15;;
15012;SDS011;7603;49.432;11.418;2022-10-17T08:39:22;10.68;;;9.68;;
15012;SDS011;7603;49.432;11.418;2022-10-17T08:41:52;10.95;;;8.68;;
15012;SDS011;7603;49.432;11.418;2022-10-17T08:44:30;7.13;;;6.03;;
15012;SDS011;7603;49.432;11.418;2022-10-17T08:46:58;5.60;;;5.20;;
15012;SDS011;7603;49.432;11.418;2022-10-17T08:49:32;5.57;;;4.35;;
15012;SDS011;7603;49.432;11.418;2022-10-17T08:52:04;4.15;;;3.85;;
15012;SDS011;7603;49.432;11.418;2022-10-17T08:54:44;8.75;;;3.97;;
15012;SDS011;7603;49.432;11.418;2022-10-17T08:57:12;4.70;;;3.47;;
15012;SDS011;7603;49.432;11.418;2022-10-17T08:59:39;4.40;;;4.05;;
15012;SDS011;7603;49.432;11.418;2022-10-17T09:02:24;5.00;;;4.70;;
15012;SDS011;7603;49.432;11.418;2022-10-17T09:05:09;3.40;;;3.20;;
15012;SDS011;7603;49.432;11.418;2022-10-17T09:08:11;3.72;;;3.45;;
15012;SDS011;7603;49.432;11.418;2022-10-17T09:18:23;11.52;;;9.30;;
15012;SDS011;7603;49.432;11.418;2022-10-17T09:21:02;10.32;;;5.30;;
15012;SDS011;7603;49.432;11.418;2022-10-17T09:23:40;3.55;;;3.38;;
15012;SDS011;7603;49.432;11.418;2022-10-17T09:26:19;4.78;;;4.00;;
15012;SDS011;7603;49.432;11.418;2022-10-17T09:28:50;3.80;;;3.60;;
15012;SDS011;7603;49.432;11.418;2022-10-17T09:33:51;22.63;;;18.77;;
15012;SDS011;7603;49.432;11.418;2022-10-17T09:38:53;4.45;;;4.15;;
15012;SDS011;7603;49.432;11.418;2022-10-17T09:41:22;3.58;;;3.40;;
15012;SDS011;7603;49.432;11.418;2022-10-17T09:43:58;4.43;;;4.13;;
15012;SDS011;7603;49.432;11.418;2022-10-17T09:46:38;4.90;;;4.40;;
15012;SDS011;7603;49.432;11.418;2022-10-17T09:49:06;4.22;;;3.92;;
15012;SDS011;7603;49.432;11.418;2022-10-17T09:51:38;5.30;;;4.30;;
15012;SDS011;7603;49.432;11.418;2022-10-17T09:54:10;5.45;;;4.95;;
15012;SDS011;7603;49.432;11.418;2022-10-17T10:02:27;6.25;;;5.65;;
15012;SDS011;7603;49.432;11.418;2022-10-17T10:07:23;6.20;;;5.60;;
15012;SDS011;7603;49.432;11.418;2022-10-17T10:09:50;5.80;;;4.85;;
15012;SDS011;7603;49.432;11.418;2022-10-17T10:12:17;4.88;;;4.30;;
15012;SDS011;7603;49.432;11.418;2022-10-17T10:14:47;5.20;;;4.90;;
15012;SDS011;7603;49.432;11.418;2022-10-17T10:23:08;4.25;;;4.00;;
15012;SDS011;7603;49.432;11.418;2022-10-17T10:28:38;6.05;;;4.03;;
15012;SDS011;7603;49.432;11.418;2022-10-17T10:31:06;14.00;;;4.35;;
15012;SDS011;7603;49.432;11.418;2022-10-17T10:33:34;5.18;;;3.53;;
15012;SDS011;7603;49.432;11.418;2022-10-17T10:36:04;3.30;;;3.13;;
15012;SDS011;7603;49.432;11.418;2022-10-17T10:38:32;2.95;;;2.85;;
15012;SDS011;7603;49.432;11.418;2022-10-17T10:41:06;3.60;;;3.15;;
15012;SDS011;7603;49.432;11.418;2022-10-17T10:43:40;9.38;;;4.55;;
15012;SDS011;7603;49.432;11.418;2022-10-17T10:46:25;4.05;;;2.60;;
15012;SDS011;7603;49.432;11.418;2022-10-17T10:48:55;3.53;;;3.20;;
15012;SDS011;7603;49.432;11.418;2022-10-17T10:51:28;3.50;;;3.20;;
15012;SDS011;7603;49.432;11.418;2022-10-17T10:54:02;8.82;;;6.93;;
15012;SDS011;7603;49.432;11.418;2022-10-17T10:56:54;9.15;;;7.22;;
15012;SDS011;7603;49.432;11.418;2022-10-17T10:59:24;3.65;;;3.45;;
15012;SDS011;7603;49.432;11.418;2022-10-17T11:02:03;21.92;;;12.68;;
15012;SDS011;7603;49.432;11.418;2022-10-17T11:04:49;24.40;;;16.92;;
15012;SDS011;7603;49.432;11.418;2022-10-17T11:15:36;4.18;;;3.88;;
15012;SDS011;7603;49.432;11.418;2022-10-17T11:20:52;5.70;;;3.90;;
15012;SDS011;7603;49.432;11.418;2022-10-17T11:23:43;4.05;;;3.65;;
15012;SDS011;7603;49.432;11.418;2022-10-17T11:26:31;5.75;;;3.35;;
15012;SDS011;7603;49.432;11.418;2022-10-17T11:29:02;3.65;;;3.45;;
15012;SDS011;7603;49.432;11.418;2022-10-17T11:31:36;4.13;;;2.90;;
15012;SDS011;7603;49.432;11.418;2022-10-17T11:34:09;2.70;;;2.60;;
15012;SDS011;7603;49.432;11.418;2022-10-17T11:36:43;4.18;;;3.65;;
15012;SDS011;7603;49.432;11.418;2022-10-17T11:39:19;9.20;;;7.38;;
15012;SDS011;7603;49.432;11.418;2022-10-17T11:42:01;7.20;;;5.95;;
15012;SDS011;7603;49.432;11.418;2022-10-17T11:44:33;6.13;;;3.30;;
15012;SDS011;7603;49.432;11.418;2022-10-17T11:47:03;4.90;;;4.55;;
15012;SDS011;7603;49.432;11.418;2022-10-17T11:49:57;3.25;;;3.15;;
15012;SDS011;7603;49.432;11.418;2022-10-17T11:52:57;2.88;;;2.67;;
15012;SDS011;7603;49.432;11.418;2022-10-17T11:55:32;5.97;;;3.97;;
15012;SDS011;7603;49.432;11.418;2022-10-17T12:00:52;22.55;;;13.52;;
15012;SDS011;7603;49.432;11.418;2022-10-17T12:03:42;5.70;;;2.78;;
15012;SDS011;7603;49.432;11.418;2022-10-17T12:06:14;2.80;;;2.60;;
15012;SDS011;7603;49.432;11.418;2022-10-17T12:14:33;2.47;;;2.10;;
15012;SDS011;7603;49.432;11.418;2022-10-17T12:20:25;2.65;;;2.45;;
15012;SDS011;7603;49.432;11.418;2022-10-17T12:25:35;3.35;;;2.10;;
15012;SDS011;7603;49.432;11.418;2022-10-17T12:28:20;5.07;;;4.68;;
15012;SDS011;7603;49.432;11.418;2022-10-17T12:30:50;12.98;;;8.00;;
15012;SDS011;7603;49.432;11.418;2022-10-17T12:33:29;3.70;;;3.42;;
15012;SDS011;7603;49.432;11.418;2022-10-17T12:46:50;2.90;;;2.72;;
15012;SDS011;7603;49.432;11.418;2022-10-17T12:49:19;4.80;;;2.78;;
15012;SDS011;7603;49.432;11.418;2022-10-17T12:52:13;3.53;;;3.10;;
15012;SDS011;7603;49.432;11.418;2022-10-17T12:54:50;2.80;;;2.60;;
15012;SDS011;7603;49.432;11.418;2022-10-17T12:57:21;7.07;;;6.55;;
15012;SDS011;7603;49.432;11.418;2022-10-17T12:59:55;4.28;;;4.07;;
15012;SDS011;7603;49.432;11.418;2022-10-17T13:02:23;4.30;;;2.85;;
15012;SDS011;7603;49.432;11.418;2022-10-17T13:04:52;4.18;;;3.13;;
15012;SDS011;7603;49.432;11.418;2022-10-17T13:07:41;2.25;;;2.15;;
15012;SDS011;7603;49.432;11.418;2022-10-17T13:10:25;2.58;;;2.47;;
15012;SDS011;7603;49.432;11.418;2022-10-17T13:13:56;6.97;;;2.80;;
15012;SDS011;7603;49.432;11.418;2022-10-17T13:16:02;2.38;;;2.17;;
15012;SDS011;7603;49.432;11.418;2022-10-17T13:18:28;2.80;;;2.67;;
15012;SDS011;7603;49.432;11.418;2022-10-17T13:23:23;3.20;;;2.90;;
15012;SDS011;7603;49.432;11.418;2022-10-17T13:26:01;3.47;;;3.17;;
15012;SDS011;7603;49.432;11.418;2022-10-17T13:28:29;3.45;;;3.15;;
15012;SDS011;7603;49.432;11.418;2022-10-17T13:30:55;2.90;;;2.60;;
15012;SDS011;7603;49.432;11.418;2022-10-17T13:33:30;4.20;;;3.90;;
15012;SDS011;7603;49.432;11.418;2022-10-17T13:36:02;3.22;;;2.90;;
15012;SDS011;7603;49.432;11.418;2022-10-17T13:38:32;5.07;;;3.15;;
15012;SDS011;7603;49.432;11.418;2022-10-17T13:40:59;3.60;;;3.40;;
15012;SDS011;7603;49.432;11.418;2022-10-17T13:43:26;3.50;;;3.38;;
15012;SDS011;7603;49.432;11.418;2022-10-17T13:45:53;4.00;;;3.55;;
15012;SDS011;7603;49.432;11.418;2022-10-17T13:48:22;3.25;;;3.15;;
15012;SDS011;7603;49.432;11.418;2022-10-17T13:50:51;3.70;;;3.10;;
15012;SDS011;7603;49.432;11.418;2022-10-17T13:53:28;3.47;;;3.28;;
15012;SDS011;7603;49.432;11.418;2022-10-17T13:58:46;6.93;;;4.03;;
15012;SDS011;7603;49.432;11.418;2022-10-17T14:01:13;3.08;;;2.97;;
15012;SDS011;7603;49.432;11.418;2022-10-17T14:03:40;3.70;;;3.40;;
15012;SDS011;7603;49.432;11.418;2022-10-17T14:06:16;7.32;;;6.72;;
15012;SDS011;7603;49.432;11.418;2022-10-17T14:11:35;4.50;;;4.28;;
15012;SDS011;7603;49.432;11.418;2022-10-17T14:14:04;4.35;;;3.95;;
15012;SDS011;7603;49.432;11.418;2022-10-17T14:16:41;4.60;;;4.20;;
15012;SDS011;7603;49.432;11.418;2022-10-17T14:19:23;6.90;;;3.88;;
15012;SDS011;7603;49.432;11.418;2022-10-17T14:21:51;3.40;;;3.20;;
15012;SDS011;7603;49.432;11.418;2022-10-17T14:24:37;4.45;;;3.72;;
15012;SDS011;7603;49.432;11.418;2022-10-17T14:27:28;5.00;;;4.07;;
15012;SDS011;7603;49.432;11.418;2022-10-17T14:30:00;4.32;;;3.90;;
15012;SDS011;7603;49.432;11.418;2022-10-17T14:32:33;5.45;;;3.42;;
15012;SDS011;7603;49.432;11.418;2022-10-17T14:35:02;5.10;;;4.63;;
15012;SDS011;7603;49.432;11.418;2022-10-17T14:37:32;3.60;;;3.30;;
15012;SDS011;7603;49.432;11.418;2022-10-17T14:40:29;3.83;;;3.35;;
15012;SDS011;7603;49.432;11.418;2022-10-17T14:42:56;3.70;;;3.40;;
15012;SDS011;7603;49.432;11.418;2022-10-17T14:45:32;3.58;;;3.38;;
15012;SDS011;7603;49.432;11.418;2022-10-17T14:48:05;5.32;;;3.45;;
15012;SDS011;7603;49.432;11.418;2022-10-17T14:50:37;3.72;;;3.40;;
15012;SDS011;7603;49.432;11.418;2022-10-17T14:53:04;7.47;;;3.30;;
15012;SDS011;7603;49.432;11.418;2022-10-17T14:55:39;4.15;;;3.85;;
15012;SDS011;7603;49.432;11.418;2022-10-17T14:58:31;6.40;;;3.88;;
15012;SDS011;7603;49.432;11.418;2022-10-17T15:00:58;9.25;;;3.63;;
15012;SDS011;7603;49.432;11.418;2022-10-17T15:03:25;8.13;;;3.88;;
15012;SDS011;7603;49.432;11.418;2022-10-17T15:05:51;8.60;;;4.32;;
15012;SDS011;7603;49.432;11.418;2022-10-17T15:08:22;9.25;;;4.03;;
15012;SDS011;7603;49.432;11.418;2022-10-17T15:10:49;8.90;;;3.45;;
15012;SDS011;7603;49.432;11.418;2022-10-17T15:13:15;8.32;;;4.35;;
15012;SDS011;7603;49.432;11.418;2022-10-17T15:15:41;7.25;;;3.90;;
15012;SDS011;7603;49.432;11.418;2022-10-17T15:18:09;10.38;;;3.72;;
15012;SDS011;7603;49.432;11.418;2022-10-17T15:20:36;5.70;;;3.53;;
15012;SDS011;7603;49.432;11.418;2022-10-17T15:23:02;8.38;;;3.85;;
15012;SDS011;7603;49.432;11.418;2022-10-17T15:25:28;11.18;;;3.80;;
15012;SDS011;7603;49.432;11.418;2022-10-17T15:27:55;14.25;;;4.80;;
15012;SDS011;7603;49.432;11.418;2022-10-17T15:32:50;13.63;;;5.38;;
15012;SDS011;7603;49.432;11.418;2022-10-17T15:35:17;3.60;;;3.33;;
15012;SDS011;7603;49.432;11.418;2022-10-17T15:37:43;6.72;;;3.78;;
15012;SDS011;7603;49.432;11.418;2022-10-17T15:40:20;8.48;;;4.28;;
15012;SDS011;7603;49.432;11.418;2022-10-17T15:42:48;20.20;;;14.88;;
15012;SDS011;7603;49.432;11.418;2022-10-17T15:45:15;12.63;;;4.18;;
15012;SDS011;7603;49.432;11.418;2022-10-17T15:47:42;7.43;;;4.05;;
15012;SDS011;7603;49.432;11.418;2022-10-17T15:50:14;13.63;;;4.28;;
15012;SDS011;7603;49.432;11.418;2022-10-17T15:52:41;18.63;;;4.20;;
15012;SDS011;7603;49.432;11.418;2022-10-17T15:55:08;11.32;;;4.50;;
15012;SDS011;7603;49.432;11.418;2022-10-17T15:57:38;14.95;;;4.80;;
15012;SDS011;7603;49.432;11.418;2022-10-17T16:00:07;16.63;;;4.60;;
15012;SDS011;7603;49.432;11.418;2022-10-17T16:02:41;14.57;;;4.43;;
15012;SDS011;7603;49.432;11.418;2022-10-17T16:05:09;10.43;;;5.32;;
15012;SDS011;7603;49.432;11.418;2022-10-17T16:07:40;16.80;;;8.57;;
15012;SDS011;7603;49.432;11.418;2022-10-17T16:10:07;11.38;;;5.13;;
15012;SDS011;7603;49.432;11.418;2022-10-17T16:12:34;12.75;;;4.70;;
15012;SDS011;7603;49.432;11.418;2022-10-17T16:15:06;10.40;;;4.75;;
15012;SDS011;7603;49.432;11.418;2022-10-17T16:17:52;16.17;;;6.03;;
15012;SDS011;7603;49.432;11.418;2022-10-17T16:20:20;21.67;;;6.38;;
15012;SDS011;7603;49.432;11.418;2022-10-17T16:22:46;16.25;;;5.03;;
15012;SDS011;7603;49.432;11.418;2022-10-17T16:25:20;11.85;;;5.25;;
15012;SDS011;7603;49.432;11.418;2022-10-17T16:27:51;15.27;;;4.78;;
15012;SDS011;7603;49.432;11.418;2022-10-17T16:30:18;17.67;;;9.20;;
15012;SDS011;7603;49.432;11.418;2022-10-17T16:32:44;14.98;;;5.40;;
15012;SDS011;7603;49.432;11.418;2022-10-17T16:35:13;18.48;;;5.65;;
15012;SDS011;7603;49.432;11.418;2022-10-17T16:37:45;16.75;;;6.05;;
15012;SDS011;7603;49.432;11.418;2022-10-17T16:40:11;17.58;;;5.57;;
15012;SDS011;7603;49.432;11.418;2022-10-17T16:42:38;20.85;;;8.05;;